Silver Ridge Township, Maine
Current Conditions -  °F | °C
As of 4:26 AM on Sunday 26 Oct 2014 (Local Time) from KMLT Reporting Station
Overcast Overcast  
Wind Chill: 43°   Ceiling: 400
Heat Index: 43°   Visibility: 10mi
Dew Point: 42°   Wind: 0mph
Humidity: 97%   Direction: NA
Pressure: 29.38"   Gusts: NA
Location:  45.8047°N, 68.2984°W
Report Text: KMLT 260826Z AUTO 00000KT 10SM OVC004 06/06 A2938 RMK AO2 RAE15 P0000 T00610056
Loading
Personal Weather Stations






























Interactive Weather Map
Tropical Storm Tracking
New forecast layout! Learn more

10-Day Weather Forecast

Advertisements
Track Severe Weather on mobile